createdAt,value
2017-12-01T00:00:48.187Z,51.10
2017-12-01T00:03:15.715Z,51.10
2017-12-01T00:05:43.255Z,51.60
2017-12-01T00:08:10.786Z,51.10
2017-12-01T00:10:38.354Z,51.00
2017-12-01T00:13:06.646Z,51.60
2017-12-01T00:15:34.954Z,51.00
2017-12-01T00:18:02.478Z,50.90
2017-12-01T00:20:30.783Z,51.00
2017-12-01T00:22:58.314Z,50.90
2017-12-01T00:25:26.608Z,51.00
2017-12-01T00:27:54.171Z,50.90
2017-12-01T00:30:21.710Z,51.00
2017-12-01T00:32:50.003Z,51.00
2017-12-01T00:35:17.531Z,50.90
2017-12-01T00:37:45.064Z,50.90
2017-12-01T00:40:12.592Z,50.90
2017-12-01T00:42:40.131Z,50.90
2017-12-01T00:45:08.457Z,50.90
2017-12-01T00:47:35.991Z,50.90
2017-12-01T00:50:03.518Z,50.90
2017-12-01T00:52:31.811Z,50.90
2017-12-01T00:55:00.098Z,50.90
2017-12-01T00:57:27.654Z,50.90
2017-12-01T00:59:55.195Z,50.80
2017-12-01T01:02:23.506Z,50.80
2017-12-01T01:04:51.032Z,50.70
2017-12-01T01:07:19.324Z,50.80
2017-12-01T01:09:46.884Z,50.80
2017-12-01T01:12:14.415Z,50.70
2017-12-01T01:14:41.938Z,50.80
2017-12-01T01:17:09.462Z,50.80
2017-12-01T01:19:36.995Z,50.70
2017-12-01T01:22:04.532Z,50.70
2017-12-01T01:24:32.059Z,50.40
2017-12-01T01:26:59.620Z,50.80
2017-12-01T01:29:27.143Z,50.70
2017-12-01T01:31:55.435Z,50.70
2017-12-01T01:37:16.808Z,50.70
2017-12-01T01:39:44.341Z,50.70
2017-12-01T01:42:11.875Z,50.70
2017-12-01T01:44:40.191Z,50.70
2017-12-01T01:47:07.718Z,50.70
2017-12-01T01:49:36.027Z,50.70
2017-12-01T01:52:03.554Z,50.60
2017-12-01T01:54:31.854Z,50.60
2017-12-01T01:56:59.410Z,51.20
2017-12-01T01:59:26.944Z,50.60
2017-12-01T02:01:55.242Z,50.70
2017-12-01T02:04:22.771Z,50.60
2017-12-01T02:06:50.298Z,50.70
2017-12-01T02:09:17.974Z,50.60
2017-12-01T02:11:45.551Z,50.60
2017-12-01T02:14:13.087Z,50.50
2017-12-01T02:16:40.616Z,50.60
2017-12-01T02:19:08.158Z,50.60
2017-12-01T02:21:36.447Z,50.50
2017-12-01T02:24:03.971Z,50.50
2017-12-01T02:26:31.580Z,50.50
2017-12-01T02:28:59.104Z,50.60
2017-12-01T02:31:27.402Z,50.60
2017-12-01T02:33:54.926Z,50.50
2017-12-01T02:36:22.451Z,50.50
2017-12-01T02:38:50.040Z,50.60
2017-12-01T02:41:17.570Z,50.50
2017-12-01T02:43:45.090Z,50.50
2017-12-01T02:46:13.489Z,50.50
2017-12-01T02:48:41.026Z,50.50
2017-12-01T02:51:09.344Z,50.50
2017-12-01T02:53:36.874Z,50.50
2017-12-01T02:56:04.402Z,50.40
2017-12-01T02:58:32.698Z,50.50
2017-12-01T03:01:00.986Z,50.50
2017-12-01T03:03:28.538Z,50.50
2017-12-01T03:05:56.849Z,50.50
2017-12-01T03:08:24.383Z,50.50
2017-12-01T03:10:51.911Z,51.00
2017-12-01T03:13:19.440Z,50.50
2017-12-01T03:15:47.006Z,50.80
2017-12-01T03:18:14.543Z,50.40
2017-12-01T03:20:42.072Z,50.40
2017-12-01T03:23:10.365Z,50.40
2017-12-01T03:25:37.886Z,50.40
2017-12-01T03:28:05.459Z,50.40
2017-12-01T03:30:33.757Z,50.40
2017-12-01T03:33:01.292Z,50.40
2017-12-01T03:35:29.587Z,50.40
2017-12-01T03:37:57.117Z,50.40
2017-12-01T03:40:24.671Z,50.40
2017-12-01T03:42:52.194Z,50.40
2017-12-01T03:45:19.726Z,50.40
2017-12-01T03:47:48.016Z,50.40
2017-12-01T03:50:15.539Z,50.40
2017-12-01T03:52:43.107Z,50.30
2017-12-01T03:55:11.406Z,50.30
2017-12-01T03:57:38.938Z,50.30
2017-12-01T04:00:07.235Z,50.40
2017-12-01T04:02:35.536Z,50.20
2017-12-01T04:05:03.092Z,50.20
2017-12-01T04:07:30.622Z,50.30
2017-12-01T04:09:58.916Z,50.30
2017-12-01T04:12:26.442Z,50.20
2017-12-01T04:14:54.070Z,50.20
2017-12-01T04:17:21.629Z,50.20
2017-12-01T04:19:49.160Z,50.30
2017-12-01T04:22:16.694Z,50.30
2017-12-01T04:24:45.022Z,50.30
2017-12-01T04:27:12.563Z,50.20
2017-12-01T04:29:40.122Z,50.20
2017-12-01T04:32:07.665Z,50.20
2017-12-01T04:34:35.958Z,50.30
2017-12-01T04:37:03.491Z,50.20
2017-12-01T04:39:31.778Z,50.50
2017-12-01T04:42:00.095Z,50.50
2017-12-01T04:44:27.632Z,50.40
2017-12-01T04:46:55.167Z,50.40
2017-12-01T04:49:23.463Z,50.50
2017-12-01T04:51:50.990Z,50.50
2017-12-01T04:54:18.522Z,50.50
2017-12-01T04:56:46.057Z,50.40
2017-12-01T04:59:13.630Z,50.40
2017-12-01T05:01:41.179Z,50.20
2017-12-01T05:04:09.628Z,50.30
2017-12-01T05:06:37.249Z,50.20
2017-12-01T05:09:04.927Z,50.20
2017-12-01T05:11:33.322Z,50.10
2017-12-01T05:14:00.883Z,50.20
2017-12-01T05:16:29.186Z,50.10
2017-12-01T05:18:56.722Z,50.10
2017-12-01T05:21:25.020Z,50.10
2017-12-01T05:23:52.586Z,50.10
2017-12-01T05:26:20.107Z,50.10
2017-12-01T05:28:47.634Z,50.00
2017-12-01T05:31:15.173Z,50.00
2017-12-01T05:33:42.696Z,50.00
2017-12-01T05:36:11.002Z,50.00
2017-12-01T05:38:38.541Z,50.00
2017-12-01T05:41:06.840Z,50.00
2017-12-01T05:43:34.365Z,49.90
2017-12-01T05:46:02.700Z,50.00
2017-12-01T05:48:30.227Z,50.00
2017-12-01T05:50:57.758Z,49.90
2017-12-01T05:53:25.368Z,49.90
2017-12-01T05:55:52.891Z,49.90
2017-12-01T05:58:21.210Z,49.80
2017-12-01T06:00:48.781Z,49.90
2017-12-01T06:03:16.302Z,51.00
2017-12-01T06:05:44.590Z,51.10
2017-12-01T06:08:12.132Z,51.10
2017-12-01T06:10:40.443Z,51.80
2017-12-01T06:13:07.966Z,51.80
2017-12-01T06:15:36.263Z,52.70
2017-12-01T06:18:03.817Z,52.60
2017-12-01T06:20:31.351Z,53.00
2017-12-01T06:22:58.870Z,53.30
2017-12-01T06:25:29.459Z,53.50
2017-12-01T06:27:58.118Z,53.70
2017-12-01T06:30:26.469Z,53.70
2017-12-01T06:32:54.054Z,54.10
2017-12-01T06:35:21.581Z,54.40
2017-12-01T06:37:52.433Z,54.80
2017-12-01T06:40:20.766Z,55.00
2017-12-01T06:42:48.291Z,55.00
2017-12-01T06:45:15.875Z,55.20
2017-12-01T06:47:44.170Z,55.50
2017-12-01T06:50:11.738Z,55.50
2017-12-01T06:52:39.251Z,55.60
2017-12-01T06:55:06.803Z,55.70
2017-12-01T06:57:34.338Z,55.80
2017-12-01T07:00:01.877Z,55.90
2017-12-01T07:02:29.460Z,55.80
2017-12-01T07:04:56.950Z,55.80
2017-12-01T07:07:24.500Z,55.70
2017-12-01T07:09:52.021Z,55.50
2017-12-01T07:12:19.543Z,55.50
2017-12-01T07:14:47.827Z,55.10
2017-12-01T07:17:16.115Z,55.20
2017-12-01T07:19:43.666Z,55.20
2017-12-01T07:22:11.962Z,55.70
2017-12-01T07:24:39.488Z,55.70
2017-12-01T07:27:10.357Z,57.00
2017-12-01T07:29:37.878Z,57.00
2017-12-01T07:32:05.402Z,57.20
2017-12-01T07:34:32.926Z,57.10
2017-12-01T07:37:00.562Z,57.70
2017-12-01T07:39:28.879Z,57.90
2017-12-01T07:41:56.429Z,57.60
2017-12-01T07:44:25.760Z,57.10
2017-12-01T07:46:53.315Z,56.80
2017-12-01T07:49:20.878Z,56.80
2017-12-01T07:51:48.412Z,56.60
2017-12-01T07:54:15.939Z,56.50
2017-12-01T07:56:43.488Z,56.60
2017-12-01T07:59:11.030Z,56.40
2017-12-01T08:01:38.587Z,56.60
2017-12-01T08:04:06.127Z,56.80
2017-12-01T08:06:33.663Z,56.80
2017-12-01T08:09:01.207Z,56.60
2017-12-01T08:11:29.506Z,56.70
2017-12-01T08:13:57.031Z,56.60
2017-12-01T08:16:36.438Z,56.40
2017-12-01T08:19:03.980Z,56.20
2017-12-01T08:21:43.396Z,56.10
2017-12-01T08:24:23.858Z,56.00
2017-12-01T08:26:51.438Z,55.80
2017-12-01T08:29:18.964Z,55.60
2017-12-01T08:31:47.289Z,55.40
2017-12-01T08:34:14.820Z,55.30
2017-12-01T08:36:42.339Z,55.20
2017-12-01T08:39:09.896Z,55.00
2017-12-01T08:41:37.428Z,54.90
2017-12-01T08:44:04.956Z,54.80
2017-12-01T08:46:32.489Z,54.70
2017-12-01T08:49:00.812Z,54.60
2017-12-01T08:51:28.358Z,54.60
2017-12-01T08:53:55.877Z,54.40
2017-12-01T08:56:23.402Z,54.30
2017-12-01T08:58:50.970Z,54.10
2017-12-01T09:01:18.504Z,54.00
2017-12-01T09:03:46.055Z,54.00
2017-12-01T09:06:13.582Z,54.00
2017-12-01T09:08:41.875Z,54.10
2017-12-01T09:11:10.166Z,53.90
2017-12-01T09:13:37.699Z,53.80
2017-12-01T09:16:06.015Z,53.70
2017-12-01T09:18:33.546Z,53.60
2017-12-01T09:21:01.847Z,53.50
2017-12-01T09:23:29.373Z,53.50
2017-12-01T09:25:56.978Z,53.40
2017-12-01T09:28:24.534Z,53.30
2017-12-01T09:30:52.061Z,53.20
2017-12-01T09:33:20.357Z,53.10
2017-12-01T09:35:47.882Z,53.00
2017-12-01T09:38:15.407Z,52.80
2017-12-01T09:40:42.971Z,52.80
2017-12-01T09:43:10.510Z,52.70
2017-12-01T09:45:38.040Z,52.70
2017-12-01T09:48:06.338Z,52.40
2017-12-01T09:50:33.862Z,52.40
2017-12-01T09:53:01.419Z,52.30
2017-12-01T09:55:28.942Z,52.80
2017-12-01T09:57:56.505Z,52.90
2017-12-01T10:00:24.075Z,52.30
2017-12-01T10:02:51.586Z,52.10
2017-12-01T10:05:19.133Z,52.00
2017-12-01T10:07:47.419Z,51.80
2017-12-01T10:10:15.728Z,51.70
2017-12-01T10:12:43.255Z,51.70
2017-12-01T10:15:11.561Z,51.60
2017-12-01T10:17:39.088Z,51.60
2017-12-01T10:20:07.376Z,51.50
2017-12-01T10:22:34.944Z,51.50
2017-12-01T10:25:02.470Z,51.40
2017-12-01T10:27:30.004Z,51.30
2017-12-01T10:29:57.533Z,51.30
2017-12-01T10:32:25.078Z,51.20
2017-12-01T10:34:52.630Z,51.30
2017-12-01T10:37:20.949Z,51.30
2017-12-01T10:39:48.474Z,51.30
2017-12-01T10:42:15.998Z,51.40
2017-12-01T10:44:43.525Z,51.30
2017-12-01T10:47:11.078Z,51.20
2017-12-01T10:49:38.607Z,51.20
2017-12-01T10:52:06.135Z,51.20
2017-12-01T10:54:33.661Z,51.00
2017-12-01T10:57:01.189Z,51.00
2017-12-01T10:59:28.747Z,50.90
2017-12-01T11:01:56.278Z,50.80
2017-12-01T11:04:23.803Z,50.80
2017-12-01T11:06:51.331Z,50.90
2017-12-01T11:09:18.859Z,50.90
2017-12-01T11:11:47.189Z,51.30
2017-12-01T11:14:14.719Z,50.80
2017-12-01T11:16:43.011Z,50.70
2017-12-01T11:19:10.542Z,50.70
2017-12-01T11:21:38.832Z,50.90
2017-12-01T11:24:07.149Z,50.90
2017-12-01T11:26:34.682Z,50.90
2017-12-01T11:29:02.201Z,50.90
2017-12-01T11:31:29.727Z,50.90
2017-12-01T11:33:57.250Z,50.90
2017-12-01T11:36:24.802Z,50.90
2017-12-01T11:38:53.094Z,50.90
2017-12-01T11:41:20.617Z,50.90
2017-12-01T11:43:48.192Z,50.90
2017-12-01T11:46:15.705Z,51.00
2017-12-01T11:48:43.257Z,51.00
2017-12-01T11:51:10.787Z,51.10
2017-12-01T11:53:38.324Z,51.20
2017-12-01T11:56:06.623Z,51.20
2017-12-01T11:58:34.150Z,51.10
2017-12-01T12:01:01.727Z,51.10
2017-12-01T12:03:30.035Z,51.10
2017-12-01T12:05:57.587Z,51.00
2017-12-01T12:08:25.126Z,51.10
2017-12-01T12:10:53.422Z,51.00
2017-12-01T12:13:20.985Z,51.00
2017-12-01T12:15:48.539Z,50.90
2017-12-01T12:18:16.112Z,50.90
2017-12-01T12:20:43.646Z,50.90
2017-12-01T12:23:11.974Z,50.80
2017-12-01T12:25:39.515Z,50.70
2017-12-01T12:28:07.080Z,50.70
2017-12-01T12:30:34.611Z,50.80
2017-12-01T12:33:02.915Z,50.80
2017-12-01T12:35:30.442Z,50.80
2017-12-01T12:37:58.745Z,50.80
2017-12-01T12:40:26.906Z,50.70
2017-12-01T12:42:55.008Z,50.80
2017-12-01T12:45:22.559Z,50.70
2017-12-01T12:47:50.092Z,50.80
2017-12-01T12:50:18.392Z,50.90
2017-12-01T12:52:45.975Z,50.90
2017-12-01T12:55:13.474Z,51.00
2017-12-01T12:57:41.808Z,50.70
2017-12-01T13:00:09.344Z,50.70
2017-12-01T13:02:36.869Z,50.80
2017-12-01T13:05:05.184Z,51.00
2017-12-01T13:07:32.726Z,50.80
2017-12-01T13:10:00.303Z,50.90
2017-12-01T13:12:27.835Z,50.90
2017-12-01T13:14:56.186Z,50.90
2017-12-01T13:17:23.698Z,50.80
2017-12-01T13:19:51.246Z,50.80
2017-12-01T13:22:18.806Z,50.80
2017-12-01T13:24:46.346Z,50.90
2017-12-01T13:27:14.652Z,51.00
2017-12-01T13:29:42.195Z,51.40
2017-12-01T13:32:10.504Z,51.00
2017-12-01T13:34:38.062Z,51.00
2017-12-01T13:37:05.590Z,51.20
2017-12-01T13:39:33.886Z,51.20
2017-12-01T13:42:01.422Z,51.20
2017-12-01T13:44:29.729Z,51.40
2017-12-01T13:46:57.292Z,51.40
2017-12-01T13:49:24.827Z,51.40
2017-12-01T13:51:53.163Z,51.50
2017-12-01T13:54:20.703Z,51.50
2017-12-01T13:56:48.251Z,51.60
2017-12-01T13:59:15.778Z,53.30
2017-12-01T14:01:44.074Z,53.90
2017-12-01T14:04:11.626Z,53.90
2017-12-01T14:06:39.155Z,54.30
2017-12-01T14:09:06.679Z,54.60
2017-12-01T14:11:34.226Z,55.70
2017-12-01T14:14:01.754Z,56.20
2017-12-01T14:16:30.095Z,57.60
2017-12-01T14:18:57.626Z,57.60
2017-12-01T14:21:25.182Z,57.90
2017-12-01T14:23:52.711Z,58.10
2017-12-01T14:26:20.997Z,58.40
2017-12-01T14:28:49.290Z,58.40
2017-12-01T14:31:16.814Z,58.40
2017-12-01T14:33:45.146Z,58.10
2017-12-01T14:36:12.675Z,58.00
2017-12-01T14:38:40.269Z,58.00
2017-12-01T14:41:07.819Z,57.80
2017-12-01T14:43:35.338Z,57.70
2017-12-01T14:46:03.626Z,56.70
2017-12-01T14:48:31.905Z,56.60
2017-12-01T14:50:59.458Z,56.60
2017-12-01T14:53:27.750Z,56.50
2017-12-01T14:55:55.279Z,56.50
2017-12-01T14:58:22.803Z,56.30
2017-12-01T15:00:50.343Z,56.70
2017-12-01T15:03:17.861Z,56.40
2017-12-01T15:05:46.155Z,56.60
2017-12-01T15:08:14.470Z,56.20
2017-12-01T15:10:41.995Z,56.30
2017-12-01T15:13:09.555Z,56.20
2017-12-01T15:15:37.091Z,56.10
2017-12-01T15:18:05.393Z,56.00
2017-12-01T15:20:32.919Z,56.00
2017-12-01T15:23:00.443Z,56.00
2017-12-01T15:25:28.877Z,56.00
2017-12-01T15:27:57.166Z,56.00
2017-12-01T15:30:25.479Z,55.80
2017-12-01T15:32:53.010Z,55.80
2017-12-01T15:35:20.533Z,55.80
2017-12-01T15:37:48.058Z,55.70
2017-12-01T15:40:15.587Z,55.70
2017-12-01T15:42:43.137Z,55.70
2017-12-01T15:45:11.430Z,55.70
2017-12-01T15:47:39.012Z,55.70
2017-12-01T15:50:06.564Z,55.60
2017-12-01T15:52:34.101Z,55.50
2017-12-01T15:55:02.430Z,55.50
2017-12-01T15:57:29.958Z,55.40
2017-12-01T15:59:57.498Z,55.30
2017-12-01T16:02:25.063Z,55.30
2017-12-01T16:04:52.586Z,55.30
2017-12-01T16:07:20.110Z,55.30
2017-12-01T16:09:47.639Z,55.30
2017-12-01T16:12:15.194Z,55.20
2017-12-01T16:14:42.722Z,55.30
2017-12-01T16:17:10.277Z,55.20
2017-12-01T16:19:37.813Z,55.20
2017-12-01T16:22:05.326Z,55.20
2017-12-01T16:24:33.642Z,55.10
2017-12-01T16:27:01.175Z,55.20
2017-12-01T16:29:28.698Z,55.10
2017-12-01T16:31:56.223Z,55.00
2017-12-01T16:34:23.769Z,55.10
2017-12-01T16:36:51.296Z,55.20
2017-12-01T16:39:19.655Z,55.30
2017-12-01T16:41:47.182Z,55.20
2017-12-01T16:44:14.702Z,55.60
2017-12-01T16:46:43.071Z,55.40
2017-12-01T16:49:10.571Z,55.40
2017-12-01T16:51:38.088Z,55.40
2017-12-01T16:54:06.375Z,55.50
2017-12-01T16:56:34.664Z,55.70
2017-12-01T16:59:02.214Z,55.70
2017-12-01T17:01:30.495Z,56.00
2017-12-01T17:03:59.399Z,56.00
2017-12-01T17:06:26.929Z,56.20
2017-12-01T17:08:55.220Z,56.50
2017-12-01T17:11:22.768Z,56.50
2017-12-01T17:13:51.064Z,57.10
2017-12-01T17:16:18.602Z,57.00
2017-12-01T17:18:47.813Z,57.30
2017-12-01T17:21:16.118Z,57.00
2017-12-01T17:23:43.638Z,57.00
2017-12-01T17:26:11.935Z,56.20
2017-12-01T17:28:39.470Z,56.10
2017-12-01T17:31:07.780Z,56.70
2017-12-01T17:33:35.330Z,56.30
2017-12-01T17:36:02.857Z,56.40
2017-12-01T17:38:30.374Z,56.30
2017-12-01T17:40:57.909Z,56.40
2017-12-01T17:43:25.439Z,56.50
2017-12-01T17:45:53.923Z,56.60
2017-12-01T17:48:21.448Z,57.00
2017-12-01T17:50:48.979Z,56.70
2017-12-01T17:53:16.498Z,56.60
2017-12-01T17:55:44.026Z,56.70
2017-12-01T17:58:12.597Z,57.50
2017-12-01T18:00:42.153Z,57.00
2017-12-01T18:03:10.474Z,56.00
2017-12-01T18:05:37.998Z,55.70
2017-12-01T18:08:05.669Z,55.40
2017-12-01T18:10:34.609Z,55.20
2017-12-01T18:13:02.237Z,55.20
2017-12-01T18:15:29.831Z,55.10
2017-12-01T18:17:57.358Z,55.00
2017-12-01T18:20:24.924Z,54.90
2017-12-01T18:22:52.447Z,54.80
2017-12-01T18:25:20.002Z,54.80
2017-12-01T18:27:47.522Z,54.90
2017-12-01T18:30:15.071Z,54.70
2017-12-01T18:32:42.594Z,54.70
2017-12-01T18:35:10.881Z,54.70
2017-12-01T18:37:39.167Z,54.60
2017-12-01T18:40:07.563Z,54.60
2017-12-01T18:42:35.133Z,54.60
2017-12-01T18:45:02.681Z,54.90
2017-12-01T18:47:30.214Z,55.20
2017-12-01T18:49:58.541Z,55.90
2017-12-01T18:52:26.081Z,55.90
2017-12-01T18:57:20.938Z,54.20
2017-12-01T18:59:48.496Z,53.40
2017-12-01T19:02:16.222Z,53.70
2017-12-01T19:04:47.029Z,53.90
2017-12-01T19:07:14.718Z,54.00
2017-12-01T19:09:42.255Z,54.00
2017-12-01T19:12:10.767Z,53.90
2017-12-01T19:14:39.341Z,53.70
2017-12-01T19:17:06.878Z,53.60
2017-12-01T19:19:40.426Z,53.40
2017-12-01T19:22:07.999Z,53.40
2017-12-01T19:24:52.047Z,53.30
2017-12-01T19:27:19.603Z,53.20
2017-12-01T19:29:47.151Z,53.20
2017-12-01T19:32:28.734Z,53.20
2017-12-01T19:35:02.005Z,53.20
2017-12-01T19:37:30.394Z,53.20
2017-12-01T19:39:57.983Z,53.20
2017-12-01T19:42:27.555Z,53.10
2017-12-01T19:45:11.764Z,53.10
2017-12-01T19:47:44.779Z,53.10
2017-12-01T19:50:16.573Z,53.00
2017-12-01T19:52:44.109Z,52.90
2017-12-01T19:55:11.683Z,53.00
2017-12-01T19:57:52.101Z,53.00
2017-12-01T20:00:21.514Z,52.90
2017-12-01T20:02:50.850Z,53.00
2017-12-01T20:05:18.389Z,52.80
2017-12-01T20:07:45.936Z,52.80
2017-12-01T20:10:25.887Z,53.10
2017-12-01T20:12:54.218Z,53.00
2017-12-01T20:15:33.899Z,53.00
2017-12-01T20:18:02.231Z,53.00
2017-12-01T20:20:29.762Z,53.50
2017-12-01T20:22:57.318Z,53.00
2017-12-01T20:25:24.887Z,53.10
2017-12-01T20:27:54.386Z,53.20
2017-12-01T20:30:22.010Z,53.20
2017-12-01T20:32:54.754Z,53.10
2017-12-01T20:35:23.599Z,53.00
2017-12-01T20:37:51.930Z,53.00
2017-12-01T20:40:23.615Z,52.90
2017-12-01T20:42:54.096Z,52.80
2017-12-01T20:45:21.650Z,52.80
2017-12-01T20:50:43.983Z,52.80
2017-12-01T20:53:11.542Z,52.70
2017-12-01T20:55:47.910Z,52.70
2017-12-01T20:58:16.241Z,52.70
2017-12-01T21:00:43.827Z,52.60
2017-12-01T21:03:19.776Z,52.60
2017-12-01T21:05:47.332Z,52.50
2017-12-01T21:08:14.882Z,52.50
2017-12-01T21:10:42.651Z,52.40
2017-12-01T21:13:10.211Z,52.50
2017-12-01T21:15:37.856Z,52.40
2017-12-01T21:18:05.432Z,52.30
2017-12-01T21:20:33.098Z,52.30
2017-12-01T21:23:00.668Z,52.30
2017-12-01T21:25:28.221Z,52.20
2017-12-01T21:27:55.855Z,52.30
2017-12-01T21:30:23.453Z,52.40
2017-12-01T21:32:51.004Z,52.50
2017-12-01T21:35:18.559Z,52.60
2017-12-01T21:37:46.100Z,52.70
2017-12-01T21:40:13.673Z,52.70
2017-12-01T21:42:41.262Z,52.80
2017-12-01T21:45:08.843Z,52.80
2017-12-01T21:47:36.451Z,52.80
2017-12-01T21:50:20.779Z,52.90
2017-12-01T21:52:48.390Z,53.00
2017-12-01T21:55:15.996Z,53.00
2017-12-01T21:57:43.580Z,53.00
2017-12-01T22:00:11.372Z,53.10
2017-12-01T22:02:39.796Z,53.10
2017-12-01T22:05:08.109Z,53.10
2017-12-01T22:07:35.703Z,53.10
2017-12-01T22:10:03.291Z,53.10
2017-12-01T22:12:30.848Z,53.10
2017-12-01T22:14:58.547Z,53.20
2017-12-01T22:17:26.131Z,53.30
2017-12-01T22:19:53.687Z,53.30
2017-12-01T22:22:21.264Z,53.30
2017-12-01T22:30:41.709Z,53.30
2017-12-01T22:33:09.263Z,53.30
2017-12-01T22:35:36.798Z,53.30
2017-12-01T22:38:04.346Z,53.40
2017-12-01T22:40:31.895Z,53.50
2017-12-01T22:42:59.555Z,53.80
2017-12-01T22:45:34.519Z,53.90
2017-12-01T22:48:02.212Z,54.10
2017-12-01T22:50:30.543Z,54.10
2017-12-01T22:52:58.108Z,54.10
2017-12-01T22:55:26.103Z,54.00
2017-12-01T22:57:55.360Z,53.90
2017-12-01T23:00:23.461Z,53.90
2017-12-01T23:02:51.040Z,54.10
2017-12-01T23:05:18.616Z,54.20
2017-12-01T23:07:46.184Z,54.20
2017-12-01T23:10:13.784Z,54.20
2017-12-01T23:12:41.347Z,54.20
2017-12-01T23:15:08.883Z,54.00
2017-12-01T23:17:37.203Z,53.80
2017-12-01T23:20:04.774Z,53.70
2017-12-01T23:22:32.349Z,53.70
2017-12-01T23:24:59.889Z,53.60
2017-12-01T23:27:27.451Z,53.60
2017-12-01T23:29:55.004Z,53.50
2017-12-01T23:32:22.573Z,53.50
2017-12-01T23:34:50.107Z,53.40
2017-12-01T23:37:17.652Z,53.40
2017-12-01T23:39:45.208Z,53.30
2017-12-01T23:42:12.767Z,53.20
2017-12-01T23:44:40.394Z,53.20
2017-12-01T23:47:07.930Z,53.10
2017-12-01T23:49:35.482Z,53.10
2017-12-01T23:52:03.028Z,53.00
2017-12-01T23:54:31.330Z,52.90
2017-12-01T23:56:58.864Z,52.90
2017-12-01T23:59:26.398Z,52.90
